sensor_id;sensor_type;location;lat;lon;timestamp;temperature;humidity
69328;DHT22;56472;52.114;5.492;2023-07-20T00:00:09;24.50;55.80
69328;DHT22;56472;52.114;5.492;2023-07-20T00:02:39;24.50;55.80
69328;DHT22;56472;52.114;5.492;2023-07-20T00:05:06;24.50;55.80
69328;DHT22;56472;52.114;5.492;2023-07-20T00:07:33;24.50;55.90
69328;DHT22;56472;52.114;5.492;2023-07-20T00:10:00;24.50;55.90
69328;DHT22;56472;52.114;5.492;2023-07-20T00:12:27;24.50;55.90
69328;DHT22;56472;52.114;5.492;2023-07-20T00:14:54;24.50;56.00
69328;DHT22;56472;52.114;5.492;2023-07-20T00:17:21;24.50;56.00
69328;DHT22;56472;52.114;5.492;2023-07-20T00:19:48;24.40;56.00
69328;DHT22;56472;52.114;5.492;2023-07-20T00:22:15;24.40;56.00
69328;DHT22;56472;52.114;5.492;2023-07-20T00:24:42;24.50;56.10
69328;DHT22;56472;52.114;5.492;2023-07-20T00:27:09;24.40;56.00
69328;DHT22;56472;52.114;5.492;2023-07-20T00:29:36;24.40;56.00
69328;DHT22;56472;52.114;5.492;2023-07-20T00:32:04;24.40;56.00
69328;DHT22;56472;52.114;5.492;2023-07-20T00:34:34;24.40;56.10
69328;DHT22;56472;52.114;5.492;2023-07-20T00:37:01;24.40;56.10
69328;DHT22;56472;52.114;5.492;2023-07-20T00:39:28;24.40;56.10
69328;DHT22;56472;52.114;5.492;2023-07-20T00:41:55;24.40;56.10
69328;DHT22;56472;52.114;5.492;2023-07-20T00:44:24;24.40;56.10
69328;DHT22;56472;52.114;5.492;2023-07-20T00:46:50;24.40;56.20
69328;DHT22;56472;52.114;5.492;2023-07-20T00:49:18;24.40;56.10
69328;DHT22;56472;52.114;5.492;2023-07-20T00:51:48;24.40;56.10
69328;DHT22;56472;52.114;5.492;2023-07-20T00:54:16;24.40;56.10
69328;DHT22;56472;52.114;5.492;2023-07-20T00:56:44;24.40;56.10
69328;DHT22;56472;52.114;5.492;2023-07-20T00:59:13;24.40;56.10
69328;DHT22;56472;52.114;5.492;2023-07-20T01:01:40;24.40;56.10
69328;DHT22;56472;52.114;5.492;2023-07-20T01:04:08;24.40;56.10
69328;DHT22;56472;52.114;5.492;2023-07-20T01:06:45;24.40;56.00
69328;DHT22;56472;52.114;5.492;2023-07-20T01:10:25;24.40;56.00
69328;DHT22;56472;52.114;5.492;2023-07-20T01:12:48;24.40;56.00
69328;DHT22;56472;52.114;5.492;2023-07-20T01:15:17;24.40;56.00
69328;DHT22;56472;52.114;5.492;2023-07-20T01:17:45;24.30;56.00
69328;DHT22;56472;52.114;5.492;2023-07-20T01:20:18;24.30;56.00
69328;DHT22;56472;52.114;5.492;2023-07-20T01:29:07;24.30;55.90
69328;DHT22;56472;52.114;5.492;2023-07-20T01:31:38;24.30;56.00
69328;DHT22;56472;52.114;5.492;2023-07-20T01:34:08;24.20;56.00
69328;DHT22;56472;52.114;5.492;2023-07-20T01:36:37;24.20;55.90
69328;DHT22;56472;52.114;5.492;2023-07-20T01:39:06;24.30;56.00
69328;DHT22;56472;52.114;5.492;2023-07-20T01:41:33;24.20;55.90
69328;DHT22;56472;52.114;5.492;2023-07-20T01:44:00;24.20;55.90
69328;DHT22;56472;52.114;5.492;2023-07-20T01:46:30;24.20;55.80
69328;DHT22;56472;52.114;5.492;2023-07-20T01:48:58;24.20;55.80
69328;DHT22;56472;52.114;5.492;2023-07-20T01:51:25;24.20;55.70
69328;DHT22;56472;52.114;5.492;2023-07-20T01:53:52;24.20;55.70
69328;DHT22;56472;52.114;5.492;2023-07-20T01:56:19;24.20;55.70
69328;DHT22;56472;52.114;5.492;2023-07-20T01:58:46;24.20;55.70
69328;DHT22;56472;52.114;5.492;2023-07-20T02:01:13;24.20;55.60
69328;DHT22;56472;52.114;5.492;2023-07-20T02:03:40;24.20;55.60
69328;DHT22;56472;52.114;5.492;2023-07-20T02:06:07;24.20;55.50
69328;DHT22;56472;52.114;5.492;2023-07-20T02:08:34;24.20;55.40
69328;DHT22;56472;52.114;5.492;2023-07-20T02:11:01;24.20;55.30
69328;DHT22;56472;52.114;5.492;2023-07-20T02:13:30;24.20;55.30
69328;DHT22;56472;52.114;5.492;2023-07-20T02:15:57;24.20;55.20
69328;DHT22;56472;52.114;5.492;2023-07-20T02:18:24;24.20;55.20
69328;DHT22;56472;52.114;5.492;2023-07-20T02:20:53;24.20;55.10
69328;DHT22;56472;52.114;5.492;2023-07-20T02:23:20;24.20;55.10
69328;DHT22;56472;52.114;5.492;2023-07-20T02:25:47;24.20;55.10
69328;DHT22;56472;52.114;5.492;2023-07-20T02:28:15;24.20;55.00
69328;DHT22;56472;52.114;5.492;2023-07-20T02:30:42;24.20;55.00
69328;DHT22;56472;52.114;5.492;2023-07-20T02:33:09;24.20;55.10
69328;DHT22;56472;52.114;5.492;2023-07-20T02:35:36;24.10;55.00
69328;DHT22;56472;52.114;5.492;2023-07-20T02:38:03;24.10;55.00
69328;DHT22;56472;52.114;5.492;2023-07-20T02:40:30;24.10;54.90
69328;DHT22;56472;52.114;5.492;2023-07-20T02:42:57;24.10;54.90
69328;DHT22;56472;52.114;5.492;2023-07-20T02:45:24;24.10;54.90
69328;DHT22;56472;52.114;5.492;2023-07-20T02:47:51;24.10;54.90
69328;DHT22;56472;52.114;5.492;2023-07-20T02:50:18;24.10;54.90
69328;DHT22;56472;52.114;5.492;2023-07-20T02:52:45;24.10;54.90
69328;DHT22;56472;52.114;5.492;2023-07-20T02:55:12;24.10;54.90
69328;DHT22;56472;52.114;5.492;2023-07-20T02:57:39;24.10;54.90
69328;DHT22;56472;52.114;5.492;2023-07-20T03:00:07;24.10;54.90
69328;DHT22;56472;52.114;5.492;2023-07-20T03:02:34;24.10;54.90
69328;DHT22;56472;52.114;5.492;2023-07-20T03:05:02;24.10;54.90
69328;DHT22;56472;52.114;5.492;2023-07-20T03:07:29;24.10;54.90
69328;DHT22;56472;52.114;5.492;2023-07-20T03:09:56;24.10;54.90
69328;DHT22;56472;52.114;5.492;2023-07-20T03:12:23;24.10;54.90
69328;DHT22;56472;52.114;5.492;2023-07-20T03:14:51;24.00;54.80
69328;DHT22;56472;52.114;5.492;2023-07-20T03:17:19;24.00;54.80
69328;DHT22;56472;52.114;5.492;2023-07-20T03:19:47;24.00;54.80
69328;DHT22;56472;52.114;5.492;2023-07-20T03:22:14;24.00;54.80
69328;DHT22;56472;52.114;5.492;2023-07-20T03:24:41;24.00;55.80
69328;DHT22;56472;52.114;5.492;2023-07-20T03:27:08;24.00;54.80
69328;DHT22;56472;52.114;5.492;2023-07-20T03:29:35;24.00;54.90
69328;DHT22;56472;52.114;5.492;2023-07-20T03:32:02;24.00;54.80
69328;DHT22;56472;52.114;5.492;2023-07-20T03:34:29;24.00;54.80
69328;DHT22;56472;52.114;5.492;2023-07-20T03:36:56;24.00;54.80
69328;DHT22;56472;52.114;5.492;2023-07-20T03:39:23;24.00;54.80
69328;DHT22;56472;52.114;5.492;2023-07-20T03:41:50;24.00;54.80
69328;DHT22;56472;52.114;5.492;2023-07-20T03:44:17;24.00;54.80
69328;DHT22;56472;52.114;5.492;2023-07-20T03:46:44;24.00;54.80
69328;DHT22;56472;52.114;5.492;2023-07-20T03:49:11;23.90;54.70
69328;DHT22;56472;52.114;5.492;2023-07-20T03:51:38;23.90;54.70
69328;DHT22;56472;52.114;5.492;2023-07-20T03:54:05;23.90;54.70
69328;DHT22;56472;52.114;5.492;2023-07-20T03:56:32;23.90;54.70
69328;DHT22;56472;52.114;5.492;2023-07-20T03:59:02;23.90;54.70
69328;DHT22;56472;52.114;5.492;2023-07-20T04:01:29;23.90;54.60
69328;DHT22;56472;52.114;5.492;2023-07-20T04:03:56;23.90;54.60
69328;DHT22;56472;52.114;5.492;2023-07-20T04:06:24;23.90;54.60
69328;DHT22;56472;52.114;5.492;2023-07-20T04:08:52;23.90;54.70
69328;DHT22;56472;52.114;5.492;2023-07-20T04:11:18;23.90;54.60
69328;DHT22;56472;52.114;5.492;2023-07-20T04:13:45;23.90;54.70
69328;DHT22;56472;52.114;5.492;2023-07-20T04:16:12;23.90;54.70
69328;DHT22;56472;52.114;5.492;2023-07-20T04:18:39;23.90;54.70
69328;DHT22;56472;52.114;5.492;2023-07-20T04:21:08;23.90;54.70
69328;DHT22;56472;52.114;5.492;2023-07-20T04:23:35;23.90;54.70
69328;DHT22;56472;52.114;5.492;2023-07-20T04:26:03;23.90;54.70
69328;DHT22;56472;52.114;5.492;2023-07-20T04:28:30;23.90;54.70
69328;DHT22;56472;52.114;5.492;2023-07-20T04:31:12;23.90;54.70
69328;DHT22;56472;52.114;5.492;2023-07-20T04:33:40;23.90;54.70
69328;DHT22;56472;52.114;5.492;2023-07-20T04:36:07;23.90;54.70
69328;DHT22;56472;52.114;5.492;2023-07-20T04:38:35;23.90;54.70
69328;DHT22;56472;52.114;5.492;2023-07-20T04:41:16;23.90;54.70
69328;DHT22;56472;52.114;5.492;2023-07-20T04:43:46;23.90;54.80
69328;DHT22;56472;52.114;5.492;2023-07-20T04:46:18;23.90;54.80
69328;DHT22;56472;52.114;5.492;2023-07-20T04:48:46;23.90;54.80
69328;DHT22;56472;52.114;5.492;2023-07-20T04:51:15;23.90;54.80
69328;DHT22;56472;52.114;5.492;2023-07-20T04:53:44;23.90;54.90
69328;DHT22;56472;52.114;5.492;2023-07-20T04:56:11;23.90;55.00
69328;DHT22;56472;52.114;5.492;2023-07-20T04:58:38;23.90;54.90
69328;DHT22;56472;52.114;5.492;2023-07-20T05:01:05;23.90;54.90
69328;DHT22;56472;52.114;5.492;2023-07-20T05:03:34;23.90;54.90
69328;DHT22;56472;52.114;5.492;2023-07-20T05:06:02;23.90;54.90
69328;DHT22;56472;52.114;5.492;2023-07-20T05:08:29;23.90;54.90
69328;DHT22;56472;52.114;5.492;2023-07-20T05:10:56;23.90;54.90
69328;DHT22;56472;52.114;5.492;2023-07-20T05:13:23;23.90;55.00
69328;DHT22;56472;52.114;5.492;2023-07-20T05:15:54;23.90;55.90
69328;DHT22;56472;52.114;5.492;2023-07-20T05:18:21;23.80;54.90
69328;DHT22;56472;52.114;5.492;2023-07-20T05:20:50;23.90;55.00
69328;DHT22;56472;52.114;5.492;2023-07-20T05:23:18;23.90;54.90
69328;DHT22;56472;52.114;5.492;2023-07-20T05:25:47;23.90;55.00
69328;DHT22;56472;52.114;5.492;2023-07-20T05:28:14;23.90;55.00
69328;DHT22;56472;52.114;5.492;2023-07-20T05:30:41;23.90;55.00
69328;DHT22;56472;52.114;5.492;2023-07-20T05:33:08;23.90;55.00
69328;DHT22;56472;52.114;5.492;2023-07-20T05:35:36;23.90;55.00
69328;DHT22;56472;52.114;5.492;2023-07-20T05:38:03;23.90;55.90
69328;DHT22;56472;52.114;5.492;2023-07-20T05:40:31;23.90;55.10
69328;DHT22;56472;52.114;5.492;2023-07-20T05:42:58;23.90;55.10
69328;DHT22;56472;52.114;5.492;2023-07-20T05:45:25;23.90;55.10
69328;DHT22;56472;52.114;5.492;2023-07-20T05:47:52;23.90;55.20
69328;DHT22;56472;52.114;5.492;2023-07-20T05:50:19;23.90;55.30
69328;DHT22;56472;52.114;5.492;2023-07-20T05:52:46;23.90;55.30
69328;DHT22;56472;52.114;5.492;2023-07-20T05:55:14;23.90;55.30
69328;DHT22;56472;52.114;5.492;2023-07-20T05:57:42;23.90;55.40
69328;DHT22;56472;52.114;5.492;2023-07-20T06:00:10;23.90;55.50
69328;DHT22;56472;52.114;5.492;2023-07-20T06:02:41;24.00;55.70
69328;DHT22;56472;52.114;5.492;2023-07-20T06:05:09;24.00;55.60
69328;DHT22;56472;52.114;5.492;2023-07-20T06:07:38;24.00;55.70
69328;DHT22;56472;52.114;5.492;2023-07-20T06:10:06;24.00;55.70
69328;DHT22;56472;52.114;5.492;2023-07-20T06:12:33;24.00;55.70
69328;DHT22;56472;52.114;5.492;2023-07-20T06:15:03;24.00;56.70
69328;DHT22;56472;52.114;5.492;2023-07-20T06:17:31;24.10;55.70
69328;DHT22;56472;52.114;5.492;2023-07-20T06:19:58;24.10;55.80
69328;DHT22;56472;52.114;5.492;2023-07-20T06:22:25;24.10;55.80
69328;DHT22;56472;52.114;5.492;2023-07-20T06:24:52;24.10;56.00
69328;DHT22;56472;52.114;5.492;2023-07-20T06:27:19;24.10;55.80
69328;DHT22;56472;52.114;5.492;2023-07-20T06:29:46;24.10;55.80
69328;DHT22;56472;52.114;5.492;2023-07-20T06:32:13;24.10;55.80
69328;DHT22;56472;52.114;5.492;2023-07-20T06:34:40;24.20;55.90
69328;DHT22;56472;52.114;5.492;2023-07-20T06:37:08;24.10;55.90
69328;DHT22;56472;52.114;5.492;2023-07-20T06:39:35;24.10;55.90
69328;DHT22;56472;52.114;5.492;2023-07-20T06:42:05;24.20;55.90
69328;DHT22;56472;52.114;5.492;2023-07-20T06:44:32;24.20;55.80
69328;DHT22;56472;52.114;5.492;2023-07-20T06:46:59;24.20;55.70
69328;DHT22;56472;52.114;5.492;2023-07-20T06:49:27;24.20;55.70
69328;DHT22;56472;52.114;5.492;2023-07-20T06:51:55;24.20;55.70
69328;DHT22;56472;52.114;5.492;2023-07-20T06:54:22;24.30;55.70
69328;DHT22;56472;52.114;5.492;2023-07-20T06:56:50;24.30;55.70
69328;DHT22;56472;52.114;5.492;2023-07-20T06:59:20;24.30;55.60
69328;DHT22;56472;52.114;5.492;2023-07-20T07:01:48;24.30;55.50
69328;DHT22;56472;52.114;5.492;2023-07-20T07:04:15;24.30;55.40
69328;DHT22;56472;52.114;5.492;2023-07-20T07:06:42;24.40;55.40
69328;DHT22;56472;52.114;5.492;2023-07-20T07:09:09;24.40;55.30
69328;DHT22;56472;52.114;5.492;2023-07-20T07:11:36;24.40;55.20
69328;DHT22;56472;52.114;5.492;2023-07-20T07:14:03;24.40;55.20
69328;DHT22;56472;52.114;5.492;2023-07-20T07:16:31;24.40;55.10
69328;DHT22;56472;52.114;5.492;2023-07-20T07:18:58;24.40;55.10
69328;DHT22;56472;52.114;5.492;2023-07-20T07:21:28;24.40;55.10
69328;DHT22;56472;52.114;5.492;2023-07-20T07:23:55;24.40;55.20
69328;DHT22;56472;52.114;5.492;2023-07-20T07:26:24;24.40;55.10
69328;DHT22;56472;52.114;5.492;2023-07-20T07:28:51;24.50;55.20
69328;DHT22;56472;52.114;5.492;2023-07-20T07:31:18;24.50;55.20
69328;DHT22;56472;52.114;5.492;2023-07-20T07:33:45;24.60;55.20
69328;DHT22;56472;52.114;5.492;2023-07-20T07:36:12;24.60;55.10
69328;DHT22;56472;52.114;5.492;2023-07-20T07:38:39;24.60;55.00
69328;DHT22;56472;52.114;5.492;2023-07-20T07:41:26;24.60;55.00
69328;DHT22;56472;52.114;5.492;2023-07-20T07:43:53;24.60;54.80
69328;DHT22;56472;52.114;5.492;2023-07-20T07:46:20;24.60;54.80
69328;DHT22;56472;52.114;5.492;2023-07-20T07:48:48;24.60;54.60
69328;DHT22;56472;52.114;5.492;2023-07-20T07:51:14;24.60;54.60
69328;DHT22;56472;52.114;5.492;2023-07-20T07:53:42;24.60;54.60
69328;DHT22;56472;52.114;5.492;2023-07-20T07:56:10;24.60;54.60
69328;DHT22;56472;52.114;5.492;2023-07-20T07:58:37;24.60;54.60
69328;DHT22;56472;52.114;5.492;2023-07-20T08:01:04;24.70;54.50
69328;DHT22;56472;52.114;5.492;2023-07-20T08:03:31;24.60;54.40
69328;DHT22;56472;52.114;5.492;2023-07-20T08:05:59;24.70;54.40
69328;DHT22;56472;52.114;5.492;2023-07-20T08:08:26;24.70;54.30
69328;DHT22;56472;52.114;5.492;2023-07-20T08:10:54;24.70;54.20
69328;DHT22;56472;52.114;5.492;2023-07-20T08:13:21;24.80;54.10
69328;DHT22;56472;52.114;5.492;2023-07-20T08:15:50;24.80;53.90
69328;DHT22;56472;52.114;5.492;2023-07-20T08:18:20;24.80;53.80
69328;DHT22;56472;52.114;5.492;2023-07-20T08:20:47;24.80;53.70
69328;DHT22;56472;52.114;5.492;2023-07-20T08:23:16;24.90;53.70
69328;DHT22;56472;52.114;5.492;2023-07-20T08:25:43;24.90;53.60
69328;DHT22;56472;52.114;5.492;2023-07-20T08:28:15;24.90;53.50
69328;DHT22;56472;52.114;5.492;2023-07-20T08:30:45;25.00;53.50
69328;DHT22;56472;52.114;5.492;2023-07-20T08:33:14;25.00;53.50
69328;DHT22;56472;52.114;5.492;2023-07-20T08:35:41;25.00;53.30
69328;DHT22;56472;52.114;5.492;2023-07-20T08:38:09;25.00;53.10
69328;DHT22;56472;52.114;5.492;2023-07-20T08:40:41;25.00;53.00
69328;DHT22;56472;52.114;5.492;2023-07-20T08:43:10;25.00;52.80
69328;DHT22;56472;52.114;5.492;2023-07-20T08:45:40;25.10;52.80
69328;DHT22;56472;52.114;5.492;2023-07-20T08:48:08;25.10;52.70
69328;DHT22;56472;52.114;5.492;2023-07-20T08:50:35;25.10;52.60
69328;DHT22;56472;52.114;5.492;2023-07-20T08:53:02;25.10;52.40
69328;DHT22;56472;52.114;5.492;2023-07-20T08:55:30;25.00;52.20
69328;DHT22;56472;52.114;5.492;2023-07-20T08:58:00;25.00;52.20
69328;DHT22;56472;52.114;5.492;2023-07-20T09:00:27;25.00;52.10
69328;DHT22;56472;52.114;5.492;2023-07-20T09:02:56;25.10;52.00
69328;DHT22;56472;52.114;5.492;2023-07-20T09:05:24;25.00;51.90
69328;DHT22;56472;52.114;5.492;2023-07-20T09:07:53;25.10;52.80
69328;DHT22;56472;52.114;5.492;2023-07-20T09:10:22;25.10;51.70
69328;DHT22;56472;52.114;5.492;2023-07-20T09:12:49;25.10;51.70
69328;DHT22;56472;52.114;5.492;2023-07-20T09:15:17;25.10;51.50
69328;DHT22;56472;52.114;5.492;2023-07-20T09:17:50;25.10;51.40
69328;DHT22;56472;52.114;5.492;2023-07-20T09:20:18;25.20;51.30
69328;DHT22;56472;52.114;5.492;2023-07-20T09:22:50;25.20;51.30
69328;DHT22;56472;52.114;5.492;2023-07-20T09:25:20;25.10;51.20
69328;DHT22;56472;52.114;5.492;2023-07-20T09:27:49;25.20;51.10
69328;DHT22;56472;52.114;5.492;2023-07-20T09:30:18;25.20;51.10
69328;DHT22;56472;52.114;5.492;2023-07-20T09:32:47;25.20;50.90
69328;DHT22;56472;52.114;5.492;2023-07-20T09:35:18;25.20;50.70
69328;DHT22;56472;52.114;5.492;2023-07-20T09:37:59;25.20;50.60
69328;DHT22;56472;52.114;5.492;2023-07-20T09:40:29;25.20;50.40
69328;DHT22;56472;52.114;5.492;2023-07-20T09:43:00;25.20;50.40
69328;DHT22;56472;52.114;5.492;2023-07-20T09:45:33;25.20;50.30
69328;DHT22;56472;52.114;5.492;2023-07-20T09:48:04;25.20;50.20
69328;DHT22;56472;52.114;5.492;2023-07-20T09:50:43;25.20;50.10
69328;DHT22;56472;52.114;5.492;2023-07-20T09:53:15;25.20;50.00
69328;DHT22;56472;52.114;5.492;2023-07-20T09:55:45;25.30;50.10
69328;DHT22;56472;52.114;5.492;2023-07-20T09:58:13;25.30;50.10
69328;DHT22;56472;52.114;5.492;2023-07-20T10:00:41;25.30;50.00
69328;DHT22;56472;52.114;5.492;2023-07-20T10:03:19;25.30;49.90
69328;DHT22;56472;52.114;5.492;2023-07-20T10:06:06;25.40;50.00
69328;DHT22;56472;52.114;5.492;2023-07-20T10:08:39;25.40;49.90
69328;DHT22;56472;52.114;5.492;2023-07-20T10:11:12;25.40;49.90
69328;DHT22;56472;52.114;5.492;2023-07-20T10:13:43;25.40;49.90
69328;DHT22;56472;52.114;5.492;2023-07-20T10:16:22;25.40;49.80
69328;DHT22;56472;52.114;5.492;2023-07-20T10:19:13;25.40;49.60
69328;DHT22;56472;52.114;5.492;2023-07-20T10:21:48;25.40;49.40
69328;DHT22;56472;52.114;5.492;2023-07-20T10:24:23;25.30;49.30
69328;DHT22;56472;52.114;5.492;2023-07-20T10:26:51;25.30;49.30
69328;DHT22;56472;52.114;5.492;2023-07-20T10:29:19;25.30;49.30
69328;DHT22;56472;52.114;5.492;2023-07-20T10:31:46;25.30;49.30
69328;DHT22;56472;52.114;5.492;2023-07-20T10:34:13;25.40;49.30
69328;DHT22;56472;52.114;5.492;2023-07-20T10:36:44;25.40;49.20
69328;DHT22;56472;52.114;5.492;2023-07-20T10:39:31;25.40;49.10
69328;DHT22;56472;52.114;5.492;2023-07-20T10:42:09;25.40;48.90
69328;DHT22;56472;52.114;5.492;2023-07-20T10:44:37;25.40;48.80
69328;DHT22;56472;52.114;5.492;2023-07-20T10:47:12;25.40;48.80
69328;DHT22;56472;52.114;5.492;2023-07-20T10:49:59;25.40;48.60
69328;DHT22;56472;52.114;5.492;2023-07-20T10:52:37;25.40;48.50
69328;DHT22;56472;52.114;5.492;2023-07-20T10:55:14;25.40;48.50
69328;DHT22;56472;52.114;5.492;2023-07-20T10:57:41;25.30;48.40
69328;DHT22;56472;52.114;5.492;2023-07-20T11:00:13;25.30;48.60
69328;DHT22;56472;52.114;5.492;2023-07-20T11:02:47;25.40;48.70
69328;DHT22;56472;52.114;5.492;2023-07-20T11:08:09;25.30;48.70
69328;DHT22;56472;52.114;5.492;2023-07-20T11:10:36;25.40;48.80
69328;DHT22;56472;52.114;5.492;2023-07-20T11:13:22;25.30;48.70
69328;DHT22;56472;52.114;5.492;2023-07-20T11:18:26;25.40;48.70
69328;DHT22;56472;52.114;5.492;2023-07-20T11:20:54;25.40;48.80
69328;DHT22;56472;52.114;5.492;2023-07-20T11:23:21;25.40;48.80
69328;DHT22;56472;52.114;5.492;2023-07-20T11:25:49;25.40;48.80
69328;DHT22;56472;52.114;5.492;2023-07-20T11:28:16;25.40;48.60
69328;DHT22;56472;52.114;5.492;2023-07-20T11:30:43;25.40;48.60
69328;DHT22;56472;52.114;5.492;2023-07-20T11:33:10;25.50;48.60
69328;DHT22;56472;52.114;5.492;2023-07-20T11:35:49;25.40;48.50
69328;DHT22;56472;52.114;5.492;2023-07-20T11:38:17;25.50;48.60
69328;DHT22;56472;52.114;5.492;2023-07-20T11:40:45;25.50;48.60
69328;DHT22;56472;52.114;5.492;2023-07-20T11:43:13;25.50;48.50
69328;DHT22;56472;52.114;5.492;2023-07-20T11:45:44;25.50;48.40
69328;DHT22;56472;52.114;5.492;2023-07-20T11:48:17;25.50;48.30
69328;DHT22;56472;52.114;5.492;2023-07-20T11:50:44;25.50;48.20
69328;DHT22;56472;52.114;5.492;2023-07-20T11:53:11;25.50;48.20
69328;DHT22;56472;52.114;5.492;2023-07-20T11:55:40;25.50;48.20
69328;DHT22;56472;52.114;5.492;2023-07-20T11:58:09;25.50;48.20
69328;DHT22;56472;52.114;5.492;2023-07-20T12:00:38;25.50;48.30
69328;DHT22;56472;52.114;5.492;2023-07-20T12:03:07;25.50;48.30
69328;DHT22;56472;52.114;5.492;2023-07-20T12:05:34;25.50;48.20
69328;DHT22;56472;52.114;5.492;2023-07-20T12:08:21;25.60;48.30
69328;DHT22;56472;52.114;5.492;2023-07-20T12:10:48;25.60;48.20
69328;DHT22;56472;52.114;5.492;2023-07-20T12:13:15;25.60;48.10
69328;DHT22;56472;52.114;5.492;2023-07-20T12:15:43;25.60;48.20
69328;DHT22;56472;52.114;5.492;2023-07-20T12:18:10;25.70;48.20
69328;DHT22;56472;52.114;5.492;2023-07-20T12:20:38;25.70;48.10
69328;DHT22;56472;52.114;5.492;2023-07-20T12:23:11;25.70;48.10
69328;DHT22;56472;52.114;5.492;2023-07-20T12:25:38;25.70;48.00
69328;DHT22;56472;52.114;5.492;2023-07-20T12:28:17;25.70;47.90
69328;DHT22;56472;52.114;5.492;2023-07-20T12:30:45;25.70;47.90
69328;DHT22;56472;52.114;5.492;2023-07-20T12:33:13;25.70;48.00
69328;DHT22;56472;52.114;5.492;2023-07-20T12:35:43;25.70;48.10
69328;DHT22;56472;52.114;5.492;2023-07-20T12:38:10;25.70;48.10
69328;DHT22;56472;52.114;5.492;2023-07-20T12:40:37;25.70;48.10
69328;DHT22;56472;52.114;5.492;2023-07-20T12:43:04;25.70;47.90
69328;DHT22;56472;52.114;5.492;2023-07-20T12:45:31;25.70;47.80
69328;DHT22;56472;52.114;5.492;2023-07-20T12:47:58;25.70;47.80
69328;DHT22;56472;52.114;5.492;2023-07-20T12:50:26;25.70;47.70
69328;DHT22;56472;52.114;5.492;2023-07-20T12:52:53;25.70;47.60
69328;DHT22;56472;52.114;5.492;2023-07-20T12:55:20;25.70;47.70
69328;DHT22;56472;52.114;5.492;2023-07-20T12:57:47;25.70;47.70
69328;DHT22;56472;52.114;5.492;2023-07-20T13:00:15;25.70;47.80
69328;DHT22;56472;52.114;5.492;2023-07-20T13:02:43;25.70;47.80
69328;DHT22;56472;52.114;5.492;2023-07-20T13:05:10;25.70;47.70
69328;DHT22;56472;52.114;5.492;2023-07-20T13:07:38;25.70;47.60
69328;DHT22;56472;52.114;5.492;2023-07-20T13:10:09;25.70;47.60
69328;DHT22;56472;52.114;5.492;2023-07-20T13:12:37;25.60;47.60
69328;DHT22;56472;52.114;5.492;2023-07-20T13:15:09;25.60;47.70
69328;DHT22;56472;52.114;5.492;2023-07-20T13:17:38;25.60;47.70
69328;DHT22;56472;52.114;5.492;2023-07-20T13:20:07;25.60;47.70
69328;DHT22;56472;52.114;5.492;2023-07-20T13:22:40;25.50;47.70
69328;DHT22;56472;52.114;5.492;2023-07-20T13:25:08;25.50;47.50
69328;DHT22;56472;52.114;5.492;2023-07-20T13:27:35;25.50;47.40
69328;DHT22;56472;52.114;5.492;2023-07-20T13:30:04;25.50;47.50
69328;DHT22;56472;52.114;5.492;2023-07-20T13:32:36;25.50;47.80
69328;DHT22;56472;52.114;5.492;2023-07-20T13:35:04;25.50;48.00
69328;DHT22;56472;52.114;5.492;2023-07-20T13:37:31;25.50;48.10
69328;DHT22;56472;52.114;5.492;2023-07-20T13:39:58;25.50;47.90
69328;DHT22;56472;52.114;5.492;2023-07-20T13:42:25;25.50;47.90
69328;DHT22;56472;52.114;5.492;2023-07-20T13:44:52;25.50;47.80
69328;DHT22;56472;52.114;5.492;2023-07-20T13:47:20;25.50;48.60
69328;DHT22;56472;52.114;5.492;2023-07-20T13:49:48;25.60;47.70
69328;DHT22;56472;52.114;5.492;2023-07-20T13:52:29;25.50;47.60
69328;DHT22;56472;52.114;5.492;2023-07-20T13:54:58;25.60;47.80
69328;DHT22;56472;52.114;5.492;2023-07-20T13:57:26;25.60;47.90
69328;DHT22;56472;52.114;5.492;2023-07-20T13:59:53;25.60;47.90
69328;DHT22;56472;52.114;5.492;2023-07-20T14:02:21;25.70;47.90
69328;DHT22;56472;52.114;5.492;2023-07-20T14:04:50;25.70;47.80
69328;DHT22;56472;52.114;5.492;2023-07-20T14:07:37;25.70;47.60
69328;DHT22;56472;52.114;5.492;2023-07-20T14:10:05;25.70;47.70
69328;DHT22;56472;52.114;5.492;2023-07-20T14:12:35;25.70;47.80
69328;DHT22;56472;52.114;5.492;2023-07-20T14:15:02;25.70;47.90
69328;DHT22;56472;52.114;5.492;2023-07-20T14:17:30;25.60;48.00
69328;DHT22;56472;52.114;5.492;2023-07-20T14:19:58;25.60;48.00
69328;DHT22;56472;52.114;5.492;2023-07-20T14:22:26;25.70;48.10
69328;DHT22;56472;52.114;5.492;2023-07-20T14:24:53;25.60;48.00
69328;DHT22;56472;52.114;5.492;2023-07-20T14:27:20;25.60;48.00
69328;DHT22;56472;52.114;5.492;2023-07-20T14:29:48;25.60;48.00
69328;DHT22;56472;52.114;5.492;2023-07-20T14:32:15;25.60;47.90
69328;DHT22;56472;52.114;5.492;2023-07-20T14:34:42;25.60;48.00
69328;DHT22;56472;52.114;5.492;2023-07-20T14:37:09;25.70;48.10
69328;DHT22;56472;52.114;5.492;2023-07-20T14:39:36;25.70;47.90
69328;DHT22;56472;52.114;5.492;2023-07-20T14:42:03;25.70;47.90
69328;DHT22;56472;52.114;5.492;2023-07-20T14:44:32;25.70;47.70
69328;DHT22;56472;52.114;5.492;2023-07-20T14:46:59;25.70;47.70
69328;DHT22;56472;52.114;5.492;2023-07-20T14:49:40;25.70;47.60
69328;DHT22;56472;52.114;5.492;2023-07-20T14:52:08;25.70;47.60
69328;DHT22;56472;52.114;5.492;2023-07-20T14:54:38;25.70;47.50
69328;DHT22;56472;52.114;5.492;2023-07-20T14:57:05;25.70;47.60
69328;DHT22;56472;52.114;5.492;2023-07-20T14:59:40;25.70;47.60
69328;DHT22;56472;52.114;5.492;2023-07-20T15:02:12;25.70;47.70
69328;DHT22;56472;52.114;5.492;2023-07-20T15:04:46;25.60;47.80
69328;DHT22;56472;52.114;5.492;2023-07-20T15:07:15;25.70;47.90
69328;DHT22;56472;52.114;5.492;2023-07-20T15:09:42;25.60;47.90
69328;DHT22;56472;52.114;5.492;2023-07-20T15:12:12;25.60;47.90
69328;DHT22;56472;52.114;5.492;2023-07-20T15:14:40;25.70;48.00
69328;DHT22;56472;52.114;5.492;2023-07-20T15:17:09;25.70;48.20
69328;DHT22;56472;52.114;5.492;2023-07-20T15:19:36;25.70;48.30
69328;DHT22;56472;52.114;5.492;2023-07-20T15:22:04;25.70;48.20
69328;DHT22;56472;52.114;5.492;2023-07-20T15:24:32;25.70;48.20
69328;DHT22;56472;52.114;5.492;2023-07-20T15:26:59;25.80;48.20
69328;DHT22;56472;52.114;5.492;2023-07-20T15:29:28;25.70;48.00
69328;DHT22;56472;52.114;5.492;2023-07-20T15:31:58;25.80;48.10
69328;DHT22;56472;52.114;5.492;2023-07-20T15:34:26;25.80;48.00
69328;DHT22;56472;52.114;5.492;2023-07-20T15:36:54;25.80;47.90
69328;DHT22;56472;52.114;5.492;2023-07-20T15:39:21;25.70;47.70
69328;DHT22;56472;52.114;5.492;2023-07-20T15:41:50;25.70;47.70
69328;DHT22;56472;52.114;5.492;2023-07-20T15:44:17;25.70;47.70
69328;DHT22;56472;52.114;5.492;2023-07-20T15:46:46;25.70;47.80
69328;DHT22;56472;52.114;5.492;2023-07-20T15:49:15;25.70;47.80
69328;DHT22;56472;52.114;5.492;2023-07-20T15:51:42;25.70;47.80